createdAt,value
2017-08-07T00:00:31.496Z,64.58
2017-08-07T00:01:28.725Z,64.60
2017-08-07T00:02:25.964Z,64.61
2017-08-07T00:03:23.217Z,64.61
2017-08-07T00:04:20.456Z,64.66
2017-08-07T00:05:17.665Z,64.68
2017-08-07T00:06:14.916Z,64.69
2017-08-07T00:07:12.125Z,64.70
2017-08-07T00:08:09.382Z,64.71
2017-08-07T00:09:06.602Z,64.72
2017-08-07T00:10:03.844Z,64.74
2017-08-07T00:11:01.072Z,64.75
2017-08-07T00:11:58.323Z,64.76
2017-08-07T00:12:55.567Z,64.78
2017-08-07T00:13:52.826Z,64.80
2017-08-07T00:14:50.037Z,64.81
2017-08-07T00:15:47.268Z,64.83
2017-08-07T00:16:44.475Z,64.85
2017-08-07T00:17:41.720Z,64.87
2017-08-07T00:18:38.960Z,64.88
2017-08-07T00:19:36.216Z,64.88
2017-08-07T00:20:33.452Z,64.89
2017-08-07T00:21:30.684Z,64.90
2017-08-07T00:22:27.909Z,64.93
2017-08-07T00:23:25.184Z,64.93
2017-08-07T00:24:22.404Z,64.94
2017-08-07T00:25:19.668Z,64.98
2017-08-07T00:26:16.913Z,64.98
2017-08-07T00:27:14.177Z,64.98
2017-08-07T00:28:11.425Z,64.99
2017-08-07T00:29:08.700Z,64.98
2017-08-07T00:30:05.921Z,64.99
2017-08-07T00:31:03.156Z,65.01
2017-08-07T00:32:00.384Z,65.03
2017-08-07T00:32:57.628Z,65.03
2017-08-07T00:33:54.868Z,65.02
2017-08-07T00:34:52.105Z,65.04
2017-08-07T00:35:49.323Z,65.07
2017-08-07T00:36:46.568Z,65.08
2017-08-07T00:37:43.787Z,65.09
2017-08-07T00:38:41.053Z,65.10
2017-08-07T00:39:38.261Z,65.13
2017-08-07T00:40:35.513Z,65.14
2017-08-07T00:41:32.724Z,65.17
2017-08-07T00:42:29.971Z,65.19
2017-08-07T00:43:27.192Z,65.21
2017-08-07T00:44:24.449Z,65.25
2017-08-07T00:45:21.688Z,65.23
2017-08-07T00:46:18.943Z,65.24
2017-08-07T00:47:16.157Z,65.26
2017-08-07T00:48:13.416Z,65.26
2017-08-07T00:49:10.657Z,65.27
2017-08-07T00:50:07.901Z,65.28
2017-08-07T00:51:05.149Z,65.31
2017-08-07T00:52:02.394Z,65.33
2017-08-07T00:52:59.604Z,65.34
2017-08-07T00:53:56.869Z,65.35
2017-08-07T00:54:54.092Z,65.36
2017-08-07T00:55:51.339Z,65.37
2017-08-07T00:56:48.580Z,65.38
2017-08-07T00:57:45.832Z,65.39
2017-08-07T00:58:43.064Z,65.42
2017-08-07T00:59:40.324Z,65.42
2017-08-07T01:00:37.545Z,65.45
2017-08-07T01:01:34.809Z,65.47
2017-08-07T01:02:32.040Z,65.49
2017-08-07T01:03:29.292Z,65.50
2017-08-07T01:04:26.528Z,65.52
2017-08-07T01:05:23.784Z,65.52
2017-08-07T01:06:21.012Z,65.53
2017-08-07T01:07:18.244Z,65.56
2017-08-07T01:08:15.462Z,65.56
2017-08-07T01:09:12.741Z,65.60
2017-08-07T01:10:10.002Z,65.60
2017-08-07T01:11:07.336Z,65.64
2017-08-07T01:12:04.560Z,65.64
2017-08-07T01:13:01.816Z,65.65
2017-08-07T01:13:59.044Z,65.66
2017-08-07T01:14:56.323Z,65.68
2017-08-07T01:15:53.558Z,65.72
2017-08-07T01:16:50.805Z,65.73
2017-08-07T01:17:48.037Z,65.72
2017-08-07T01:18:45.281Z,65.73
2017-08-07T01:19:42.521Z,65.75
2017-08-07T01:20:39.903Z,65.76
2017-08-07T01:21:37.125Z,65.75
2017-08-07T01:22:34.365Z,65.76
2017-08-07T01:23:31.592Z,65.79
2017-08-07T01:24:28.884Z,65.81
2017-08-07T01:25:26.161Z,65.83
2017-08-07T01:26:23.476Z,65.82
2017-08-07T01:27:20.704Z,65.83
2017-08-07T01:28:17.952Z,65.88
2017-08-07T01:29:15.201Z,65.89
2017-08-07T01:30:12.497Z,65.91
2017-08-07T01:31:09.743Z,65.90
2017-08-07T01:32:06.988Z,65.92
2017-08-07T01:33:04.264Z,65.93
2017-08-07T01:34:01.542Z,65.93
2017-08-07T01:34:58.776Z,65.98
2017-08-07T01:35:56.008Z,65.99
2017-08-07T01:36:53.236Z,66.02
2017-08-07T01:37:50.483Z,66.03
2017-08-07T01:38:47.722Z,66.04
2017-08-07T01:39:44.987Z,66.05
2017-08-07T01:40:42.244Z,66.07
2017-08-07T01:41:39.529Z,66.06
2017-08-07T01:42:36.756Z,66.08
2017-08-07T01:43:34.014Z,66.07
2017-08-07T01:44:31.268Z,66.10
2017-08-07T01:45:28.537Z,66.12
2017-08-07T01:46:25.748Z,66.15
2017-08-07T01:47:23.020Z,66.16
2017-08-07T01:48:20.256Z,66.18
2017-08-07T01:49:17.520Z,66.18
2017-08-07T01:50:14.772Z,66.21
2017-08-07T01:51:12.043Z,66.23
2017-08-07T01:52:09.288Z,66.24
2017-08-07T01:53:06.532Z,66.26
2017-08-07T01:54:03.758Z,66.25
2017-08-07T01:55:01.021Z,66.28
2017-08-07T01:55:58.295Z,66.29
2017-08-07T01:56:55.557Z,66.29
2017-08-07T01:57:53.012Z,66.30
2017-08-07T01:58:50.257Z,66.33
2017-08-07T01:59:47.484Z,66.33
2017-08-07T02:00:44.752Z,66.36
2017-08-07T02:01:41.964Z,66.35
2017-08-07T02:02:39.217Z,66.36
2017-08-07T02:03:36.440Z,66.38
2017-08-07T02:04:33.688Z,66.38
2017-08-07T02:05:30.948Z,66.39
2017-08-07T02:06:28.206Z,66.44
2017-08-07T02:07:25.413Z,66.44
2017-08-07T02:08:22.663Z,66.45
2017-08-07T02:09:19.884Z,66.47
2017-08-07T02:10:17.137Z,66.49
2017-08-07T02:11:14.380Z,66.49
2017-08-07T02:12:11.629Z,66.50
2017-08-07T02:13:08.852Z,66.52
2017-08-07T02:14:06.108Z,66.54
2017-08-07T02:15:03.329Z,66.55
2017-08-07T02:16:00.605Z,66.58
2017-08-07T02:16:57.829Z,66.61
2017-08-07T02:17:55.087Z,66.62
2017-08-07T02:18:52.303Z,66.64
2017-08-07T02:19:49.560Z,66.65
2017-08-07T02:20:46.817Z,66.66
2017-08-07T02:21:44.085Z,66.68
2017-08-07T02:22:41.300Z,66.69
2017-08-07T02:23:38.553Z,66.71
2017-08-07T02:24:35.782Z,66.71
2017-08-07T02:25:33.053Z,66.72
2017-08-07T02:26:30.320Z,66.75
2017-08-07T02:27:27.607Z,66.76
2017-08-07T02:28:24.840Z,66.78
2017-08-07T02:29:22.075Z,66.75
2017-08-07T02:30:19.301Z,66.81
2017-08-07T02:31:16.581Z,66.82
2017-08-07T02:32:13.816Z,66.84
2017-08-07T02:33:11.181Z,66.84
2017-08-07T02:34:08.410Z,66.83
2017-08-07T02:35:05.660Z,66.88
2017-08-07T02:36:02.905Z,66.87
2017-08-07T02:37:00.171Z,66.87
2017-08-07T02:37:57.404Z,66.89
2017-08-07T02:38:54.653Z,66.89
2017-08-07T02:39:51.880Z,66.92
2017-08-07T02:40:49.133Z,66.92
2017-08-07T02:41:46.388Z,66.98
2017-08-07T02:42:43.630Z,66.95
2017-08-07T02:43:40.853Z,66.96
2017-08-07T02:44:38.148Z,66.98
2017-08-07T02:45:35.369Z,67.00
2017-08-07T02:46:32.647Z,67.02
2017-08-07T02:47:29.867Z,67.02
2017-08-07T02:48:27.108Z,67.04
2017-08-07T02:49:24.328Z,67.04
2017-08-07T02:50:21.576Z,67.06
2017-08-07T02:51:18.796Z,67.08
2017-08-07T02:52:16.067Z,67.08
2017-08-07T02:53:13.438Z,67.11
2017-08-07T02:54:10.685Z,67.11
2017-08-07T02:55:07.900Z,67.13
2017-08-07T02:56:05.156Z,67.15
2017-08-07T02:57:02.416Z,67.16
2017-08-07T02:57:59.668Z,67.17
2017-08-07T02:58:56.951Z,67.19
2017-08-07T02:59:54.208Z,67.21
2017-08-07T03:00:51.440Z,67.23
2017-08-07T03:01:48.729Z,67.24
2017-08-07T03:02:45.960Z,67.25
2017-08-07T03:03:43.217Z,67.27
2017-08-07T03:04:40.440Z,67.30
2017-08-07T03:05:37.691Z,67.27
2017-08-07T03:06:34.913Z,67.30
2017-08-07T03:07:32.187Z,67.30
2017-08-07T03:08:29.407Z,67.32
2017-08-07T03:09:26.654Z,67.31
2017-08-07T03:10:23.868Z,67.33
2017-08-07T03:11:21.238Z,67.35
2017-08-07T03:12:18.484Z,67.35
2017-08-07T03:13:15.761Z,67.37
2017-08-07T03:14:12.988Z,67.39
2017-08-07T03:15:10.236Z,67.40
2017-08-07T03:16:07.463Z,67.43
2017-08-07T03:17:04.748Z,67.44
2017-08-07T03:18:01.968Z,67.47
2017-08-07T03:18:59.221Z,67.46
2017-08-07T03:19:56.442Z,67.47
2017-08-07T03:20:53.694Z,67.48
2017-08-07T03:21:50.921Z,67.50
2017-08-07T03:22:48.191Z,67.51
2017-08-07T03:23:45.432Z,67.52
2017-08-07T03:24:42.688Z,67.54
2017-08-07T03:25:39.915Z,67.56
2017-08-07T03:26:37.184Z,67.55
2017-08-07T03:27:34.424Z,67.58
2017-08-07T03:28:31.680Z,67.58
2017-08-07T03:29:28.900Z,67.57
2017-08-07T03:30:26.152Z,67.60
2017-08-07T03:31:23.380Z,67.62
2017-08-07T03:32:20.657Z,67.62
2017-08-07T03:33:17.872Z,67.62
2017-08-07T03:34:15.116Z,67.63
2017-08-07T03:35:12.345Z,67.64
2017-08-07T03:36:09.612Z,67.65
2017-08-07T03:37:06.828Z,67.65
2017-08-07T03:38:04.090Z,67.69
2017-08-07T03:39:01.320Z,67.68
2017-08-07T03:39:58.625Z,67.68
2017-08-07T03:40:55.861Z,67.72
2017-08-07T03:41:53.109Z,67.72
2017-08-07T03:42:50.328Z,67.72
2017-08-07T03:43:47.581Z,67.73
2017-08-07T03:44:44.806Z,67.74
2017-08-07T03:45:42.045Z,67.77
2017-08-07T03:46:39.264Z,67.77
2017-08-07T03:47:36.517Z,67.78
2017-08-07T03:48:33.768Z,67.80
2017-08-07T03:49:31.024Z,67.81
2017-08-07T03:50:28.258Z,67.84
2017-08-07T03:51:25.501Z,67.86
2017-08-07T03:52:22.720Z,67.87
2017-08-07T03:53:19.972Z,67.90
2017-08-07T03:54:17.197Z,67.90
2017-08-07T03:55:14.437Z,67.91
2017-08-07T03:56:11.664Z,67.93
2017-08-07T03:57:08.910Z,67.94
2017-08-07T03:58:06.164Z,67.96
2017-08-07T03:59:03.424Z,67.98
2017-08-07T04:00:00.640Z,68.01
2017-08-07T04:00:57.909Z,68.03
2017-08-07T04:01:55.136Z,68.03
2017-08-07T04:02:52.392Z,68.04
2017-08-07T04:03:49.645Z,68.04
2017-08-07T04:04:46.888Z,68.06
2017-08-07T04:05:44.108Z,68.06
2017-08-07T04:06:41.369Z,68.06
2017-08-07T04:07:38.595Z,68.08
2017-08-07T04:08:35.868Z,68.08
2017-08-07T04:09:33.084Z,68.13
2017-08-07T04:10:30.332Z,68.14
2017-08-07T04:11:27.548Z,68.15
2017-08-07T04:12:24.792Z,68.14
2017-08-07T04:13:22.021Z,68.14
2017-08-07T04:14:19.292Z,68.17
2017-08-07T04:15:16.511Z,68.19
2017-08-07T04:16:13.748Z,68.21
2017-08-07T04:17:10.960Z,68.20
2017-08-07T04:18:08.313Z,68.22
2017-08-07T04:19:05.548Z,68.24
2017-08-07T04:20:03.065Z,68.24
2017-08-07T04:21:00.293Z,68.27
2017-08-07T04:21:57.549Z,68.26
2017-08-07T04:22:54.764Z,68.27
2017-08-07T04:23:52.040Z,68.26
2017-08-07T04:24:49.246Z,68.27
2017-08-07T04:25:46.735Z,68.28
2017-08-07T04:26:44.040Z,68.28
2017-08-07T04:27:41.349Z,68.30
2017-08-07T04:28:38.572Z,68.33
2017-08-07T04:29:35.847Z,68.33
2017-08-07T04:30:33.072Z,68.33
2017-08-07T04:31:30.346Z,68.35
2017-08-07T04:32:27.577Z,68.33
2017-08-07T04:33:24.816Z,68.36
2017-08-07T04:34:22.065Z,68.38
2017-08-07T04:35:19.316Z,68.40
2017-08-07T04:36:16.534Z,68.42
2017-08-07T04:37:13.773Z,68.44
2017-08-07T04:38:10.992Z,68.44
2017-08-07T04:39:08.255Z,68.42
2017-08-07T04:40:05.473Z,68.46
2017-08-07T04:41:02.724Z,68.46
2017-08-07T04:41:59.956Z,68.48
2017-08-07T04:42:57.193Z,68.47
2017-08-07T04:43:54.428Z,68.49
2017-08-07T04:44:51.692Z,68.51
2017-08-07T04:45:48.913Z,68.53
2017-08-07T04:46:46.157Z,68.56
2017-08-07T04:47:43.368Z,68.57
2017-08-07T04:48:40.620Z,68.60
2017-08-07T04:49:37.856Z,68.62
2017-08-07T04:50:35.110Z,68.63
2017-08-07T04:51:32.325Z,68.62
2017-08-07T04:52:29.576Z,68.63
2017-08-07T04:53:26.793Z,68.65
2017-08-07T04:54:24.036Z,68.67
2017-08-07T04:55:21.288Z,68.68
2017-08-07T04:56:18.541Z,68.70
2017-08-07T04:57:15.752Z,68.71
2017-08-07T04:58:13.000Z,68.72
2017-08-07T04:59:10.228Z,68.73
2017-08-07T05:00:07.492Z,68.74
2017-08-07T05:01:04.728Z,68.75
2017-08-07T05:02:01.981Z,68.77
2017-08-07T05:02:59.231Z,68.77
2017-08-07T05:03:56.479Z,68.79
2017-08-07T05:04:53.740Z,68.84
2017-08-07T05:05:50.997Z,68.83
2017-08-07T05:06:48.204Z,68.85
2017-08-07T05:07:45.443Z,68.87
2017-08-07T05:08:42.669Z,68.92
2017-08-07T05:09:39.917Z,68.92
2017-08-07T05:10:37.153Z,68.95
2017-08-07T05:11:34.414Z,68.93
2017-08-07T05:12:31.652Z,68.96
2017-08-07T05:13:28.916Z,69.00
2017-08-07T05:14:26.146Z,69.01
2017-08-07T05:15:23.417Z,69.03
2017-08-07T05:16:20.636Z,69.04
2017-08-07T05:17:17.893Z,69.07
2017-08-07T05:18:15.114Z,69.11
2017-08-07T05:19:12.362Z,69.12
2017-08-07T05:20:09.580Z,69.12
2017-08-07T05:21:06.845Z,69.14
2017-08-07T05:22:04.069Z,69.18
2017-08-07T05:23:01.329Z,69.19
2017-08-07T05:23:58.539Z,69.21
2017-08-07T05:24:55.842Z,69.22
2017-08-07T05:25:53.159Z,69.24
2017-08-07T05:26:50.460Z,69.26
2017-08-07T05:27:47.677Z,69.29
2017-08-07T05:28:44.916Z,69.33
2017-08-07T05:29:42.136Z,69.35
2017-08-07T05:30:39.396Z,69.37
2017-08-07T05:31:36.612Z,69.39
2017-08-07T05:32:33.875Z,69.42
2017-08-07T05:33:31.090Z,69.44
2017-08-07T05:34:28.324Z,69.50
2017-08-07T05:35:25.552Z,69.52
2017-08-07T05:36:22.825Z,69.55
2017-08-07T05:37:20.041Z,69.60
2017-08-07T05:38:17.297Z,69.70
2017-08-07T05:39:14.509Z,69.79
2017-08-07T05:40:11.755Z,69.85
2017-08-07T05:41:08.985Z,69.89
2017-08-07T05:42:06.225Z,69.89
2017-08-07T05:43:03.445Z,69.87
2017-08-07T05:44:00.705Z,69.88
2017-08-07T05:44:57.999Z,69.89
2017-08-07T05:45:55.312Z,69.92
2017-08-07T05:46:52.539Z,69.94
2017-08-07T05:47:49.792Z,69.95
2017-08-07T05:48:47.013Z,69.98
2017-08-07T05:49:44.314Z,69.99
2017-08-07T05:50:41.552Z,70.05
2017-08-07T05:51:38.824Z,70.05
2017-08-07T05:52:36.048Z,70.08
2017-08-07T05:53:33.361Z,70.12
2017-08-07T05:54:30.709Z,70.16
2017-08-07T05:55:27.966Z,70.22
2017-08-07T05:56:25.213Z,70.25
2017-08-07T05:57:22.476Z,70.29
2017-08-07T05:58:19.696Z,70.32
2017-08-07T05:59:16.939Z,70.33
2017-08-07T06:00:14.165Z,70.38
2017-08-07T06:01:11.448Z,70.41
2017-08-07T06:02:08.704Z,70.44
2017-08-07T06:03:05.976Z,70.49
2017-08-07T06:04:03.229Z,70.50
2017-08-07T06:05:00.482Z,70.54
2017-08-07T06:05:57.864Z,70.58
2017-08-07T06:06:55.192Z,70.59
2017-08-07T06:07:52.430Z,70.66
2017-08-07T06:08:49.683Z,70.68
2017-08-07T06:09:46.932Z,70.75
2017-08-07T06:10:44.209Z,70.77
2017-08-07T06:11:41.444Z,70.80
2017-08-07T06:12:38.879Z,70.83
2017-08-07T06:13:36.563Z,70.87
2017-08-07T06:14:33.930Z,70.89
2017-08-07T06:15:31.143Z,70.94
2017-08-07T06:16:28.409Z,70.97
2017-08-07T06:17:25.721Z,71.04
2017-08-07T06:18:23.178Z,71.07
2017-08-07T06:19:20.537Z,71.13
2017-08-07T06:20:17.953Z,71.14
2017-08-07T06:21:15.338Z,71.17
2017-08-07T06:22:15.204Z,71.24
2017-08-07T06:23:16.480Z,71.25
2017-08-07T06:24:13.764Z,71.30
2017-08-07T06:25:11.009Z,71.32
2017-08-07T06:26:08.305Z,71.38
2017-08-07T06:27:05.785Z,71.41
2017-08-07T06:28:03.609Z,71.46
2017-08-07T06:29:01.024Z,71.53
2017-08-07T06:29:58.359Z,71.55
2017-08-07T06:30:55.643Z,71.56
2017-08-07T06:31:52.972Z,71.59
2017-08-07T06:32:50.331Z,71.63
2017-08-07T06:33:47.700Z,71.65
2017-08-07T06:34:44.925Z,71.66
2017-08-07T06:35:42.179Z,71.70
2017-08-07T06:36:39.401Z,71.74
2017-08-07T06:37:36.668Z,71.77
2017-08-07T06:38:33.900Z,71.82
2017-08-07T06:39:31.165Z,71.86
2017-08-07T06:40:28.372Z,71.94
2017-08-07T06:41:25.612Z,71.96
2017-08-07T06:42:22.823Z,72.02
2017-08-07T06:43:20.163Z,72.07
2017-08-07T06:44:17.425Z,72.10
2017-08-07T06:45:14.688Z,72.14
2017-08-07T06:46:11.916Z,72.19
2017-08-07T06:47:09.172Z,72.22
2017-08-07T06:48:06.395Z,72.25
2017-08-07T06:49:03.677Z,72.31
2017-08-07T06:50:00.920Z,72.37
2017-08-07T06:50:58.258Z,72.41
2017-08-07T06:51:55.532Z,72.47
2017-08-07T06:52:52.812Z,72.55
2017-08-07T06:53:51.975Z,72.62
2017-08-07T06:54:49.242Z,72.68
2017-08-07T06:55:46.529Z,72.71
2017-08-07T06:56:43.949Z,72.70
2017-08-07T06:57:41.197Z,72.71
2017-08-07T06:58:38.480Z,72.75
2017-08-07T06:59:35.829Z,72.75
2017-08-07T07:00:33.122Z,72.79
2017-08-07T07:01:30.380Z,72.85
2017-08-07T07:02:27.697Z,72.87
2017-08-07T07:03:25.193Z,72.91
2017-08-07T07:04:22.576Z,72.95
2017-08-07T07:05:19.820Z,73.01
2017-08-07T07:06:17.093Z,73.05
2017-08-07T07:07:14.365Z,73.11
2017-08-07T07:08:11.669Z,73.15
2017-08-07T07:09:08.981Z,73.21
2017-08-07T07:10:06.360Z,73.29
2017-08-07T07:11:03.608Z,73.32
2017-08-07T07:12:01.192Z,73.36
2017-08-07T07:12:58.449Z,73.39
2017-08-07T07:13:55.735Z,73.46
2017-08-07T07:14:53.008Z,73.51
2017-08-07T07:15:50.301Z,73.56
2017-08-07T07:16:47.553Z,73.60
2017-08-07T07:17:44.839Z,73.67
2017-08-07T07:18:42.080Z,73.70
2017-08-07T07:19:39.392Z,73.75
2017-08-07T07:20:36.634Z,73.79
2017-08-07T07:21:33.900Z,73.80
2017-08-07T07:22:31.112Z,73.82
2017-08-07T07:23:28.576Z,73.84
2017-08-07T07:24:25.834Z,73.86
2017-08-07T07:25:23.149Z,73.90
2017-08-07T07:26:20.438Z,73.92
2017-08-07T07:27:17.788Z,73.96
2017-08-07T07:28:15.093Z,73.97
2017-08-07T07:29:12.486Z,74.01
2017-08-07T07:30:10.082Z,74.03
2017-08-07T07:31:07.371Z,74.10
2017-08-07T07:32:04.639Z,74.10
2017-08-07T07:33:01.924Z,74.13
2017-08-07T07:33:59.160Z,74.11
2017-08-07T07:34:56.420Z,74.13
2017-08-07T07:35:53.723Z,74.21
2017-08-07T07:36:50.988Z,74.17
2017-08-07T07:37:48.216Z,74.21
2017-08-07T07:38:45.476Z,74.24
2017-08-07T07:39:42.706Z,74.25
2017-08-07T07:40:40.016Z,74.23
2017-08-07T07:41:37.230Z,74.25
2017-08-07T07:42:34.481Z,74.27
2017-08-07T07:43:31.708Z,74.33
2017-08-07T07:44:29.043Z,74.33
2017-08-07T07:45:26.268Z,74.30
2017-08-07T07:46:23.548Z,74.32
2017-08-07T07:47:20.768Z,74.29
2017-08-07T07:48:23.039Z,74.30
2017-08-07T07:49:20.327Z,74.33
2017-08-07T07:50:17.580Z,74.36
2017-08-07T07:51:14.893Z,74.38
2017-08-07T07:52:12.113Z,74.37
2017-08-07T07:53:09.377Z,74.37
2017-08-07T07:54:13.281Z,74.35
2017-08-07T07:55:10.520Z,74.32
2017-08-07T07:56:07.800Z,74.34
2017-08-07T07:57:05.024Z,74.32
2017-08-07T07:58:02.281Z,74.29
2017-08-07T07:58:59.500Z,74.31
2017-08-07T07:59:56.770Z,74.31
2017-08-07T08:00:54.037Z,74.31
2017-08-07T08:01:51.280Z,74.35
2017-08-07T08:02:48.512Z,74.36
2017-08-07T08:03:45.829Z,74.41
2017-08-07T08:04:43.481Z,74.45
2017-08-07T08:05:40.732Z,74.43
2017-08-07T08:06:37.961Z,74.42
2017-08-07T08:07:35.224Z,74.46
2017-08-07T08:08:32.453Z,74.47
2017-08-07T08:09:29.745Z,74.45
2017-08-07T08:10:26.977Z,74.41
2017-08-07T08:11:24.261Z,74.43
2017-08-07T08:12:21.536Z,74.47
2017-08-07T08:13:18.789Z,74.48
2017-08-07T08:14:16.074Z,74.50
2017-08-07T08:15:13.414Z,74.50
2017-08-07T08:16:10.629Z,74.47
2017-08-07T08:17:07.900Z,74.47
2017-08-07T08:18:05.154Z,74.49
2017-08-07T08:19:02.400Z,74.48
2017-08-07T08:19:59.665Z,74.47
2017-08-07T08:20:56.930Z,74.50
2017-08-07T08:21:54.162Z,74.47
2017-08-07T08:22:51.412Z,74.43
2017-08-07T08:23:48.718Z,74.41
2017-08-07T08:24:45.969Z,74.41
2017-08-07T08:25:43.226Z,74.40
2017-08-07T08:26:40.517Z,74.38
2017-08-07T08:27:37.780Z,74.40
2017-08-07T08:28:35.177Z,74.39
2017-08-07T08:29:32.457Z,74.40
2017-08-07T08:30:29.765Z,74.34
2017-08-07T08:31:27.007Z,74.34
2017-08-07T08:32:24.312Z,74.36
2017-08-07T08:33:21.560Z,74.39
2017-08-07T08:34:18.848Z,74.38
2017-08-07T08:35:16.116Z,74.39
2017-08-07T08:36:13.441Z,74.37
2017-08-07T08:37:10.692Z,74.35
2017-08-07T08:38:08.011Z,74.32
2017-08-07T08:39:05.265Z,74.30
2017-08-07T08:40:02.621Z,74.27
2017-08-07T08:40:59.885Z,74.25
2017-08-07T08:41:57.165Z,74.24
2017-08-07T08:42:54.407Z,74.26
2017-08-07T08:43:51.663Z,74.24
2017-08-07T08:44:48.898Z,74.21
2017-08-07T08:45:46.194Z,74.17
2017-08-07T08:46:43.442Z,74.18
2017-08-07T08:47:40.708Z,74.13
2017-08-07T08:48:37.952Z,74.10
2017-08-07T08:49:35.241Z,74.05
2017-08-07T08:50:32.521Z,74.00
2017-08-07T08:51:29.781Z,73.95
2017-08-07T08:52:27.009Z,73.92
2017-08-07T08:53:24.266Z,73.90
2017-08-07T08:54:21.517Z,73.86
2017-08-07T08:55:19.120Z,73.82
2017-08-07T08:56:16.589Z,73.85
2017-08-07T08:57:13.845Z,73.84
2017-08-07T08:58:11.052Z,73.81
2017-08-07T08:59:08.310Z,73.78
2017-08-07T09:00:05.552Z,73.76
2017-08-07T09:01:02.834Z,73.71
2017-08-07T09:02:00.078Z,73.69
2017-08-07T09:02:57.356Z,73.64
2017-08-07T09:03:54.593Z,73.63
2017-08-07T09:04:51.874Z,73.59
2017-08-07T09:05:49.189Z,73.54
2017-08-07T09:06:46.485Z,73.51
2017-08-07T09:07:43.736Z,73.47
2017-08-07T09:08:41.025Z,73.46
2017-08-07T09:09:38.252Z,73.38
2017-08-07T09:10:35.504Z,73.32
2017-08-07T09:11:32.753Z,73.34
2017-08-07T09:12:30.024Z,73.34
2017-08-07T09:13:27.245Z,73.26
2017-08-07T09:14:24.510Z,73.22
2017-08-07T09:15:21.781Z,73.22
2017-08-07T09:16:19.081Z,73.15
2017-08-07T09:17:16.301Z,73.01
2017-08-07T09:18:13.558Z,72.93
2017-08-07T09:19:10.806Z,72.89
2017-08-07T09:20:08.073Z,72.81
2017-08-07T09:21:05.346Z,72.77
2017-08-07T09:22:02.629Z,72.68
2017-08-07T09:22:59.968Z,72.58
2017-08-07T09:23:57.232Z,72.46
2017-08-07T09:24:54.476Z,72.42
2017-08-07T09:25:51.800Z,72.40
2017-08-07T09:26:49.124Z,72.39
2017-08-07T09:27:46.385Z,72.32
2017-08-07T09:28:43.647Z,72.29
2017-08-07T09:29:40.970Z,72.25
2017-08-07T09:30:38.376Z,72.21
2017-08-07T09:31:35.696Z,72.14
2017-08-07T09:32:32.960Z,72.06
2017-08-07T09:33:30.233Z,72.02
2017-08-07T09:34:27.481Z,71.91
2017-08-07T09:35:24.740Z,71.86
2017-08-07T09:36:21.960Z,71.80
2017-08-07T09:37:19.656Z,71.73
2017-08-07T09:38:16.889Z,71.67
2017-08-07T09:39:14.161Z,71.57
2017-08-07T09:40:11.429Z,71.44
2017-08-07T09:41:08.676Z,71.33
2017-08-07T09:42:05.929Z,71.27
2017-08-07T09:43:03.207Z,71.16
2017-08-07T09:44:00.434Z,71.08
2017-08-07T09:44:57.690Z,71.04
2017-08-07T09:45:54.899Z,71.04
2017-08-07T09:46:52.820Z,70.93
2017-08-07T09:47:50.048Z,70.84
2017-08-07T09:48:47.304Z,70.76
2017-08-07T09:49:44.542Z,70.72
2017-08-07T09:50:41.817Z,70.66
2017-08-07T09:51:39.033Z,70.62
2017-08-07T09:52:36.551Z,70.64
2017-08-07T09:53:33.805Z,70.59
2017-08-07T09:54:31.061Z,70.56
2017-08-07T09:55:28.302Z,70.52
2017-08-07T09:56:25.544Z,70.48
2017-08-07T09:57:22.850Z,70.34
2017-08-07T09:58:20.324Z,70.19
2017-08-07T09:59:17.570Z,70.06
2017-08-07T10:00:14.839Z,69.97
2017-08-07T10:01:12.077Z,69.86
2017-08-07T10:02:09.361Z,69.80
2017-08-07T10:03:06.609Z,69.75
2017-08-07T10:04:03.925Z,69.66
2017-08-07T10:05:01.156Z,69.57
2017-08-07T10:05:58.450Z,69.42
2017-08-07T10:06:55.725Z,69.30
2017-08-07T10:07:53.051Z,69.24
2017-08-07T10:08:50.344Z,69.14
2017-08-07T10:09:47.737Z,69.04
2017-08-07T10:10:45.713Z,68.98
2017-08-07T10:11:42.973Z,68.98
2017-08-07T10:12:40.273Z,68.83
2017-08-07T10:13:37.541Z,68.79
2017-08-07T10:14:34.788Z,68.67
2017-08-07T10:15:32.054Z,68.57
2017-08-07T10:16:29.297Z,68.51
2017-08-07T10:17:26.571Z,68.48
2017-08-07T10:18:23.804Z,68.40
2017-08-07T10:19:21.079Z,68.32
2017-08-07T10:20:18.316Z,68.24
2017-08-07T10:21:15.602Z,68.20
2017-08-07T10:22:13.001Z,68.12
2017-08-07T10:23:11.856Z,68.00
2017-08-07T10:24:09.092Z,67.96
2017-08-07T10:25:06.390Z,67.90
2017-08-07T10:26:03.640Z,67.89
2017-08-07T10:27:01.369Z,67.83
2017-08-07T10:27:58.668Z,67.80
2017-08-07T10:28:57.028Z,67.76
2017-08-07T10:29:54.281Z,67.70
2017-08-07T10:30:51.541Z,67.68
2017-08-07T10:31:48.768Z,67.63
2017-08-07T10:32:46.077Z,67.56
2017-08-07T10:33:43.361Z,67.50
2017-08-07T10:34:40.637Z,67.42
2017-08-07T10:35:37.859Z,67.41
2017-08-07T10:36:35.113Z,67.39
2017-08-07T10:37:32.349Z,67.31
2017-08-07T10:38:29.628Z,67.28
2017-08-07T10:39:26.851Z,67.21
2017-08-07T10:40:24.104Z,67.20
2017-08-07T10:41:21.320Z,67.17
2017-08-07T10:42:18.568Z,67.16
2017-08-07T10:43:15.800Z,67.10
2017-08-07T10:44:13.086Z,67.01
2017-08-07T10:45:10.311Z,66.98
2017-08-07T10:46:07.553Z,66.96
2017-08-07T10:47:04.788Z,66.96
2017-08-07T10:48:02.040Z,66.88
2017-08-07T10:48:59.296Z,66.84
2017-08-07T10:49:56.552Z,66.79
2017-08-07T10:50:53.780Z,66.75
2017-08-07T10:51:51.132Z,66.76
2017-08-07T10:52:48.348Z,66.67
2017-08-07T10:53:45.732Z,66.53
2017-08-07T10:54:42.956Z,66.42
2017-08-07T10:55:40.251Z,66.39
2017-08-07T10:56:37.497Z,66.41
2017-08-07T10:57:34.769Z,66.35
2017-08-07T10:58:32.021Z,66.27
2017-08-07T10:59:29.284Z,66.18
2017-08-07T11:00:26.513Z,66.14
2017-08-07T11:01:23.764Z,66.13
2017-08-07T11:02:20.981Z,66.13
2017-08-07T11:03:18.271Z,66.09
2017-08-07T11:04:15.532Z,65.98
2017-08-07T11:05:12.793Z,65.89
2017-08-07T11:06:10.012Z,65.80
2017-08-07T11:07:07.281Z,65.75
2017-08-07T11:08:04.513Z,65.73
2017-08-07T11:09:01.788Z,65.64
2017-08-07T11:09:59.056Z,65.58
2017-08-07T11:10:56.308Z,65.47
2017-08-07T11:11:53.532Z,65.42
2017-08-07T11:12:50.812Z,65.37
2017-08-07T11:13:48.080Z,65.37
2017-08-07T11:14:45.340Z,65.29
2017-08-07T11:15:42.572Z,65.19
2017-08-07T11:16:39.937Z,65.08
2017-08-07T11:17:37.164Z,65.02
2017-08-07T11:18:34.418Z,64.97
2017-08-07T11:19:31.664Z,64.93
2017-08-07T11:20:28.913Z,64.87
2017-08-07T11:21:26.171Z,64.79
2017-08-07T11:22:23.420Z,64.70
2017-08-07T11:23:20.654Z,64.71
2017-08-07T11:24:17.933Z,64.62
2017-08-07T11:25:15.174Z,64.58
2017-08-07T11:26:12.431Z,64.47
2017-08-07T11:27:09.660Z,64.44
2017-08-07T11:28:06.912Z,64.40
2017-08-07T11:29:04.146Z,64.22
2017-08-07T11:30:01.440Z,64.20
2017-08-07T11:30:58.680Z,64.06
2017-08-07T11:31:55.929Z,63.99
2017-08-07T11:32:53.165Z,63.90
2017-08-07T11:33:50.477Z,63.87
2017-08-07T11:34:47.744Z,63.81
2017-08-07T11:35:45.002Z,63.76
2017-08-07T11:36:42.248Z,63.69
2017-08-07T11:37:39.508Z,63.58
2017-08-07T11:38:36.727Z,63.50
2017-08-07T11:39:34.258Z,63.43
2017-08-07T11:40:31.483Z,63.32
2017-08-07T11:41:28.725Z,63.23
2017-08-07T11:42:25.956Z,63.18
2017-08-07T11:43:23.234Z,63.16
2017-08-07T11:44:20.472Z,63.20
2017-08-07T11:45:17.752Z,63.20
2017-08-07T11:46:14.984Z,63.10
2017-08-07T11:47:12.235Z,63.05
2017-08-07T11:48:09.480Z,62.90
2017-08-07T11:49:06.729Z,62.83
2017-08-07T11:50:03.967Z,62.70
2017-08-07T11:51:01.225Z,62.61
2017-08-07T11:51:58.460Z,62.48
2017-08-07T11:52:55.717Z,62.38
2017-08-07T11:53:52.956Z,62.27
2017-08-07T11:54:50.233Z,62.21
2017-08-07T11:55:47.465Z,62.17
2017-08-07T11:56:44.716Z,62.20
2017-08-07T11:57:41.948Z,62.09
2017-08-07T11:58:39.204Z,61.97
2017-08-07T11:59:36.420Z,61.91
2017-08-07T12:00:33.698Z,61.90
2017-08-07T12:01:30.904Z,61.94
2017-08-07T12:02:28.196Z,61.82
2017-08-07T12:03:25.445Z,61.72
2017-08-07T12:04:22.705Z,61.66
2017-08-07T12:05:19.957Z,61.59
2017-08-07T12:06:17.219Z,61.52
2017-08-07T12:07:14.432Z,61.49
2017-08-07T12:08:11.668Z,61.36
2017-08-07T12:09:08.897Z,61.25
2017-08-07T12:10:06.185Z,61.20
2017-08-07T12:11:03.424Z,61.10
2017-08-07T12:12:00.744Z,61.08
2017-08-07T12:12:57.985Z,61.07
2017-08-07T12:13:55.230Z,61.06
2017-08-07T12:14:52.457Z,60.95
2017-08-07T12:15:49.732Z,60.84
2017-08-07T12:16:46.953Z,60.74
2017-08-07T12:17:44.253Z,60.64